sensor_id;sensor_type;location;lat;lon;timestamp;P1;durP1;ratioP1;P2;durP2;ratioP2
71003;SDS011;59025;42.050;-8.660;2022-11-10T00:02:05;0.30;;;0.30;;
71003;SDS011;59025;42.050;-8.660;2022-11-10T00:04:33;0.87;;;0.87;;
71003;SDS011;59025;42.050;-8.660;2022-11-10T00:07:01;0.28;;;0.28;;
71003;SDS011;59025;42.050;-8.660;2022-11-10T00:09:30;3.20;;;1.45;;
71003;SDS011;59025;42.050;-8.660;2022-11-10T00:11:57;0.43;;;0.43;;
71003;SDS011;59025;42.050;-8.660;2022-11-10T00:14:25;1.73;;;1.63;;
71003;SDS011;59025;42.050;-8.660;2022-11-10T00:17:09;0.20;;;0.20;;
71003;SDS011;59025;42.050;-8.660;2022-11-10T00:19:37;0.30;;;0.30;;
71003;SDS011;59025;42.050;-8.660;2022-11-10T00:22:04;0.32;;;0.32;;
71003;SDS011;59025;42.050;-8.660;2022-11-10T00:24:33;0.30;;;0.30;;
71003;SDS011;59025;42.050;-8.660;2022-11-10T00:27:00;0.82;;;0.82;;
71003;SDS011;59025;42.050;-8.660;2022-11-10T00:29:28;0.20;;;0.20;;
71003;SDS011;59025;42.050;-8.660;2022-11-10T00:31:55;0.20;;;0.20;;
71003;SDS011;59025;42.050;-8.660;2022-11-10T00:34:23;0.40;;;0.40;;
71003;SDS011;59025;42.050;-8.660;2022-11-10T00:36:50;0.30;;;0.30;;
71003;SDS011;59025;42.050;-8.660;2022-11-10T00:39:18;0.30;;;0.30;;
71003;SDS011;59025;42.050;-8.660;2022-11-10T00:41:47;0.30;;;0.30;;
71003;SDS011;59025;42.050;-8.660;2022-11-10T00:44:14;0.30;;;0.30;;
71003;SDS011;59025;42.050;-8.660;2022-11-10T00:46:41;0.40;;;0.40;;
71003;SDS011;59025;42.050;-8.660;2022-11-10T00:49:10;0.30;;;0.30;;
71003;SDS011;59025;42.050;-8.660;2022-11-10T00:51:38;0.50;;;0.50;;
71003;SDS011;59025;42.050;-8.660;2022-11-10T00:54:05;0.57;;;0.57;;
71003;SDS011;59025;42.050;-8.660;2022-11-10T00:56:33;0.30;;;0.30;;
71003;SDS011;59025;42.050;-8.660;2022-11-10T00:59:02;0.40;;;0.40;;
71003;SDS011;59025;42.050;-8.660;2022-11-10T01:01:29;1.30;;;1.30;;
71003;SDS011;59025;42.050;-8.660;2022-11-10T01:03:57;0.40;;;0.40;;
71003;SDS011;59025;42.050;-8.660;2022-11-10T01:06:24;0.50;;;0.50;;
71003;SDS011;59025;42.050;-8.660;2022-11-10T01:08:51;0.32;;;0.32;;
71003;SDS011;59025;42.050;-8.660;2022-11-10T01:11:21;1.85;;;1.38;;
71003;SDS011;59025;42.050;-8.660;2022-11-10T01:13:50;0.25;;;0.25;;
71003;SDS011;59025;42.050;-8.660;2022-11-10T01:16:21;0.30;;;0.30;;
71003;SDS011;59025;42.050;-8.660;2022-11-10T01:18:50;0.40;;;0.40;;
71003;SDS011;59025;42.050;-8.660;2022-11-10T01:21:18;0.40;;;0.40;;
71003;SDS011;59025;42.050;-8.660;2022-11-10T01:23:47;0.80;;;0.80;;
71003;SDS011;59025;42.050;-8.660;2022-11-10T01:26:15;0.30;;;0.30;;
71003;SDS011;59025;42.050;-8.660;2022-11-10T01:28:43;0.30;;;0.30;;
71003;SDS011;59025;42.050;-8.660;2022-11-10T01:31:12;0.30;;;0.30;;
71003;SDS011;59025;42.050;-8.660;2022-11-10T01:33:42;0.40;;;0.40;;
71003;SDS011;59025;42.050;-8.660;2022-11-10T01:36:10;0.40;;;0.40;;
71003;SDS011;59025;42.050;-8.660;2022-11-10T01:38:39;0.50;;;0.50;;
71003;SDS011;59025;42.050;-8.660;2022-11-10T01:41:09;0.30;;;0.30;;
71003;SDS011;59025;42.050;-8.660;2022-11-10T01:43:38;0.40;;;0.40;;
71003;SDS011;59025;42.050;-8.660;2022-11-10T01:46:06;0.30;;;0.30;;
71003;SDS011;59025;42.050;-8.660;2022-11-10T01:48:36;0.40;;;0.40;;
71003;SDS011;59025;42.050;-8.660;2022-11-10T01:51:09;0.32;;;0.32;;
71003;SDS011;59025;42.050;-8.660;2022-11-10T01:53:40;0.40;;;0.40;;
71003;SDS011;59025;42.050;-8.660;2022-11-10T01:56:10;0.30;;;0.30;;
71003;SDS011;59025;42.050;-8.660;2022-11-10T01:58:42;0.30;;;0.30;;
71003;SDS011;59025;42.050;-8.660;2022-11-10T02:01:13;0.60;;;0.60;;
71003;SDS011;59025;42.050;-8.660;2022-11-10T02:03:42;0.65;;;0.65;;
71003;SDS011;59025;42.050;-8.660;2022-11-10T02:06:15;0.30;;;0.30;;
71003;SDS011;59025;42.050;-8.660;2022-11-10T02:08:43;0.30;;;0.30;;
71003;SDS011;59025;42.050;-8.660;2022-11-10T02:11:12;0.30;;;0.30;;
71003;SDS011;59025;42.050;-8.660;2022-11-10T02:13:40;0.30;;;0.30;;
71003;SDS011;59025;42.050;-8.660;2022-11-10T02:16:08;0.30;;;0.30;;
71003;SDS011;59025;42.050;-8.660;2022-11-10T02:18:37;0.30;;;0.30;;
71003;SDS011;59025;42.050;-8.660;2022-11-10T02:21:06;0.60;;;0.60;;
71003;SDS011;59025;42.050;-8.660;2022-11-10T02:23:46;0.40;;;0.40;;
71003;SDS011;59025;42.050;-8.660;2022-11-10T02:26:16;0.35;;;0.35;;
71003;SDS011;59025;42.050;-8.660;2022-11-10T02:28:47;0.32;;;0.32;;
71003;SDS011;59025;42.050;-8.660;2022-11-10T02:31:15;0.30;;;0.30;;
71003;SDS011;59025;42.050;-8.660;2022-11-10T02:33:42;0.37;;;0.37;;
71003;SDS011;59025;42.050;-8.660;2022-11-10T02:36:11;1.10;;;1.10;;
71003;SDS011;59025;42.050;-8.660;2022-11-10T02:38:39;0.57;;;0.57;;
71003;SDS011;59025;42.050;-8.660;2022-11-10T02:41:06;2.00;;;1.90;;
71003;SDS011;59025;42.050;-8.660;2022-11-10T02:43:34;0.30;;;0.30;;
71003;SDS011;59025;42.050;-8.660;2022-11-10T02:46:03;1.00;;;1.00;;
71003;SDS011;59025;42.050;-8.660;2022-11-10T02:48:31;0.30;;;0.30;;
71003;SDS011;59025;42.050;-8.660;2022-11-10T02:50:58;0.30;;;0.30;;
71003;SDS011;59025;42.050;-8.660;2022-11-10T02:53:27;0.30;;;0.30;;
71003;SDS011;59025;42.050;-8.660;2022-11-10T02:55:54;0.60;;;0.60;;
71003;SDS011;59025;42.050;-8.660;2022-11-10T02:58:22;0.50;;;0.50;;
71003;SDS011;59025;42.050;-8.660;2022-11-10T03:00:49;0.20;;;0.20;;
71003;SDS011;59025;42.050;-8.660;2022-11-10T03:03:17;0.40;;;0.40;;
71003;SDS011;59025;42.050;-8.660;2022-11-10T03:05:44;1.95;;;1.50;;
71003;SDS011;59025;42.050;-8.660;2022-11-10T03:08:12;0.40;;;0.40;;
71003;SDS011;59025;42.050;-8.660;2022-11-10T03:10:40;0.27;;;0.27;;
71003;SDS011;59025;42.050;-8.660;2022-11-10T03:13:08;0.30;;;0.30;;
71003;SDS011;59025;42.050;-8.660;2022-11-10T03:15:35;0.40;;;0.40;;
71003;SDS011;59025;42.050;-8.660;2022-11-10T03:18:03;0.30;;;0.30;;
71003;SDS011;59025;42.050;-8.660;2022-11-10T03:20:31;4.85;;;4.43;;
71003;SDS011;59025;42.050;-8.660;2022-11-10T03:23:01;0.30;;;0.30;;
71003;SDS011;59025;42.050;-8.660;2022-11-10T03:25:30;0.32;;;0.32;;
71003;SDS011;59025;42.050;-8.660;2022-11-10T03:28:00;0.40;;;0.40;;
71003;SDS011;59025;42.050;-8.660;2022-11-10T03:30:27;0.50;;;0.50;;
71003;SDS011;59025;42.050;-8.660;2022-11-10T03:32:55;0.40;;;0.40;;
71003;SDS011;59025;42.050;-8.660;2022-11-10T03:35:22;0.30;;;0.30;;
71003;SDS011;59025;42.050;-8.660;2022-11-10T03:37:50;0.52;;;0.52;;
71003;SDS011;59025;42.050;-8.660;2022-11-10T03:40:17;0.40;;;0.40;;
71003;SDS011;59025;42.050;-8.660;2022-11-10T03:42:45;0.32;;;0.32;;
71003;SDS011;59025;42.050;-8.660;2022-11-10T03:45:14;0.40;;;0.40;;
71003;SDS011;59025;42.050;-8.660;2022-11-10T03:47:43;9.83;;;8.90;;
71003;SDS011;59025;42.050;-8.660;2022-11-10T03:50:12;0.30;;;0.30;;
71003;SDS011;59025;42.050;-8.660;2022-11-10T03:52:41;0.30;;;0.30;;
71003;SDS011;59025;42.050;-8.660;2022-11-10T03:55:10;0.32;;;0.32;;
71003;SDS011;59025;42.050;-8.660;2022-11-10T03:57:38;1.08;;;1.08;;
71003;SDS011;59025;42.050;-8.660;2022-11-10T04:00:06;0.50;;;0.50;;
71003;SDS011;59025;42.050;-8.660;2022-11-10T04:02:36;0.70;;;0.70;;
71003;SDS011;59025;42.050;-8.660;2022-11-10T04:05:05;0.22;;;0.22;;
71003;SDS011;59025;42.050;-8.660;2022-11-10T04:07:55;0.30;;;0.30;;
71003;SDS011;59025;42.050;-8.660;2022-11-10T04:10:40;0.35;;;0.35;;
71003;SDS011;59025;42.050;-8.660;2022-11-10T04:13:07;0.63;;;0.63;;
71003;SDS011;59025;42.050;-8.660;2022-11-10T04:15:52;0.40;;;0.40;;
71003;SDS011;59025;42.050;-8.660;2022-11-10T04:18:21;0.40;;;0.40;;
71003;SDS011;59025;42.050;-8.660;2022-11-10T04:20:54;0.30;;;0.30;;
71003;SDS011;59025;42.050;-8.660;2022-11-10T04:23:24;1.13;;;1.13;;
71003;SDS011;59025;42.050;-8.660;2022-11-10T04:25:53;0.30;;;0.30;;
71003;SDS011;59025;42.050;-8.660;2022-11-10T04:28:38;0.50;;;0.50;;
71003;SDS011;59025;42.050;-8.660;2022-11-10T04:31:06;0.30;;;0.30;;
71003;SDS011;59025;42.050;-8.660;2022-11-10T04:33:36;0.47;;;0.47;;
71003;SDS011;59025;42.050;-8.660;2022-11-10T04:36:04;0.40;;;0.40;;
71003;SDS011;59025;42.050;-8.660;2022-11-10T04:38:32;0.30;;;0.30;;
71003;SDS011;59025;42.050;-8.660;2022-11-10T04:40:59;1.13;;;1.13;;
71003;SDS011;59025;42.050;-8.660;2022-11-10T04:43:27;3.15;;;2.97;;
71003;SDS011;59025;42.050;-8.660;2022-11-10T04:45:55;0.30;;;0.30;;
71003;SDS011;59025;42.050;-8.660;2022-11-10T04:48:23;0.50;;;0.50;;
71003;SDS011;59025;42.050;-8.660;2022-11-10T04:50:52;0.47;;;0.47;;
71003;SDS011;59025;42.050;-8.660;2022-11-10T04:53:20;0.40;;;0.40;;
71003;SDS011;59025;42.050;-8.660;2022-11-10T04:55:49;3.70;;;1.30;;
71003;SDS011;59025;42.050;-8.660;2022-11-10T04:58:17;0.40;;;0.40;;
71003;SDS011;59025;42.050;-8.660;2022-11-10T05:00:44;0.90;;;0.82;;
71003;SDS011;59025;42.050;-8.660;2022-11-10T05:03:12;0.30;;;0.30;;
71003;SDS011;59025;42.050;-8.660;2022-11-10T05:05:40;1.35;;;1.25;;
71003;SDS011;59025;42.050;-8.660;2022-11-10T05:08:09;0.40;;;0.40;;
71003;SDS011;59025;42.050;-8.660;2022-11-10T05:10:36;0.30;;;0.30;;
71003;SDS011;59025;42.050;-8.660;2022-11-10T05:13:04;0.30;;;0.30;;
71003;SDS011;59025;42.050;-8.660;2022-11-10T05:15:32;0.73;;;0.50;;
71003;SDS011;59025;42.050;-8.660;2022-11-10T05:17:59;0.85;;;0.85;;
71003;SDS011;59025;42.050;-8.660;2022-11-10T05:20:27;0.47;;;0.47;;
71003;SDS011;59025;42.050;-8.660;2022-11-10T05:22:54;0.28;;;0.28;;
71003;SDS011;59025;42.050;-8.660;2022-11-10T05:25:41;0.35;;;0.35;;
71003;SDS011;59025;42.050;-8.660;2022-11-10T05:28:09;0.30;;;0.30;;
71003;SDS011;59025;42.050;-8.660;2022-11-10T05:30:38;0.75;;;0.73;;
71003;SDS011;59025;42.050;-8.660;2022-11-10T05:33:06;0.30;;;0.30;;
71003;SDS011;59025;42.050;-8.660;2022-11-10T05:35:34;0.30;;;0.30;;
71003;SDS011;59025;42.050;-8.660;2022-11-10T05:38:01;0.40;;;0.40;;
71003;SDS011;59025;42.050;-8.660;2022-11-10T05:40:29;1.10;;;1.10;;
71003;SDS011;59025;42.050;-8.660;2022-11-10T05:42:59;0.38;;;0.38;;
71003;SDS011;59025;42.050;-8.660;2022-11-10T05:45:27;0.55;;;0.55;;
71003;SDS011;59025;42.050;-8.660;2022-11-10T05:47:55;0.35;;;0.35;;
71003;SDS011;59025;42.050;-8.660;2022-11-10T05:50:23;0.30;;;0.30;;
71003;SDS011;59025;42.050;-8.660;2022-11-10T05:52:51;0.50;;;0.50;;
71003;SDS011;59025;42.050;-8.660;2022-11-10T05:55:20;0.35;;;0.35;;
71003;SDS011;59025;42.050;-8.660;2022-11-10T05:57:51;0.40;;;0.40;;
71003;SDS011;59025;42.050;-8.660;2022-11-10T06:00:22;0.45;;;0.45;;
71003;SDS011;59025;42.050;-8.660;2022-11-10T06:02:57;0.40;;;0.40;;
71003;SDS011;59025;42.050;-8.660;2022-11-10T06:05:28;1.37;;;0.53;;
71003;SDS011;59025;42.050;-8.660;2022-11-10T06:07:57;0.40;;;0.40;;
71003;SDS011;59025;42.050;-8.660;2022-11-10T06:10:25;4.53;;;4.13;;
71003;SDS011;59025;42.050;-8.660;2022-11-10T06:12:52;0.30;;;0.30;;
71003;SDS011;59025;42.050;-8.660;2022-11-10T06:15:21;1.58;;;1.48;;
71003;SDS011;59025;42.050;-8.660;2022-11-10T06:17:49;0.33;;;0.33;;
71003;SDS011;59025;42.050;-8.660;2022-11-10T06:22:57;0.40;;;0.40;;
71003;SDS011;59025;42.050;-8.660;2022-11-10T06:25:26;12.73;;;2.10;;
71003;SDS011;59025;42.050;-8.660;2022-11-10T06:27:54;0.30;;;0.30;;
71003;SDS011;59025;42.050;-8.660;2022-11-10T06:30:24;0.30;;;0.30;;
71003;SDS011;59025;42.050;-8.660;2022-11-10T06:32:52;0.65;;;0.65;;
71003;SDS011;59025;42.050;-8.660;2022-11-10T06:35:20;0.40;;;0.40;;
71003;SDS011;59025;42.050;-8.660;2022-11-10T06:37:58;0.40;;;0.40;;
71003;SDS011;59025;42.050;-8.660;2022-11-10T06:40:27;0.40;;;0.40;;
71003;SDS011;59025;42.050;-8.660;2022-11-10T06:42:55;0.20;;;0.20;;
71003;SDS011;59025;42.050;-8.660;2022-11-10T06:45:24;0.50;;;0.50;;
71003;SDS011;59025;42.050;-8.660;2022-11-10T06:47:59;2.10;;;1.95;;
71003;SDS011;59025;42.050;-8.660;2022-11-10T06:50:27;22.42;;;4.88;;
71003;SDS011;59025;42.050;-8.660;2022-11-10T06:52:55;0.40;;;0.40;;
71003;SDS011;59025;42.050;-8.660;2022-11-10T06:55:24;1.23;;;1.23;;
71003;SDS011;59025;42.050;-8.660;2022-11-10T06:57:53;0.20;;;0.20;;
71003;SDS011;59025;42.050;-8.660;2022-11-10T07:00:33;0.50;;;0.50;;
71003;SDS011;59025;42.050;-8.660;2022-11-10T07:03:00;1.10;;;1.10;;
71003;SDS011;59025;42.050;-8.660;2022-11-10T07:05:29;0.47;;;0.47;;
71003;SDS011;59025;42.050;-8.660;2022-11-10T07:08:00;4.17;;;1.80;;
71003;SDS011;59025;42.050;-8.660;2022-11-10T07:10:28;0.30;;;0.30;;
71003;SDS011;59025;42.050;-8.660;2022-11-10T07:12:56;0.35;;;0.35;;
71003;SDS011;59025;42.050;-8.660;2022-11-10T07:15:24;0.40;;;0.40;;
71003;SDS011;59025;42.050;-8.660;2022-11-10T07:17:53;0.30;;;0.30;;
71003;SDS011;59025;42.050;-8.660;2022-11-10T07:20:21;0.30;;;0.30;;
71003;SDS011;59025;42.050;-8.660;2022-11-10T07:22:55;0.32;;;0.32;;
71003;SDS011;59025;42.050;-8.660;2022-11-10T07:25:23;0.65;;;0.60;;
71003;SDS011;59025;42.050;-8.660;2022-11-10T07:27:52;0.50;;;0.50;;
71003;SDS011;59025;42.050;-8.660;2022-11-10T07:30:20;0.40;;;0.40;;
71003;SDS011;59025;42.050;-8.660;2022-11-10T07:32:57;0.80;;;0.80;;
71003;SDS011;59025;42.050;-8.660;2022-11-10T07:35:39;0.35;;;0.35;;
71003;SDS011;59025;42.050;-8.660;2022-11-10T07:38:08;0.30;;;0.30;;
71003;SDS011;59025;42.050;-8.660;2022-11-10T07:40:36;0.55;;;0.55;;
71003;SDS011;59025;42.050;-8.660;2022-11-10T07:43:04;0.50;;;0.50;;
71003;SDS011;59025;42.050;-8.660;2022-11-10T07:45:32;0.40;;;0.40;;
71003;SDS011;59025;42.050;-8.660;2022-11-10T07:48:01;0.20;;;0.20;;
71003;SDS011;59025;42.050;-8.660;2022-11-10T07:50:30;0.40;;;0.40;;
71003;SDS011;59025;42.050;-8.660;2022-11-10T07:53:02;0.40;;;0.40;;
71003;SDS011;59025;42.050;-8.660;2022-11-10T07:55:30;0.40;;;0.40;;
71003;SDS011;59025;42.050;-8.660;2022-11-10T07:57:58;0.60;;;0.60;;
71003;SDS011;59025;42.050;-8.660;2022-11-10T08:00:26;0.77;;;0.77;;
71003;SDS011;59025;42.050;-8.660;2022-11-10T08:02:54;0.40;;;0.40;;
71003;SDS011;59025;42.050;-8.660;2022-11-10T08:05:31;0.30;;;0.30;;
71003;SDS011;59025;42.050;-8.660;2022-11-10T08:07:59;0.40;;;0.40;;
71003;SDS011;59025;42.050;-8.660;2022-11-10T08:10:29;0.40;;;0.40;;
71003;SDS011;59025;42.050;-8.660;2022-11-10T08:12:59;1.58;;;1.40;;
71003;SDS011;59025;42.050;-8.660;2022-11-10T08:15:29;0.30;;;0.30;;
71003;SDS011;59025;42.050;-8.660;2022-11-10T08:18:00;0.40;;;0.40;;
71003;SDS011;59025;42.050;-8.660;2022-11-10T08:20:31;0.65;;;0.65;;
71003;SDS011;59025;42.050;-8.660;2022-11-10T08:23:00;0.40;;;0.40;;
71003;SDS011;59025;42.050;-8.660;2022-11-10T08:25:33;0.30;;;0.30;;
71003;SDS011;59025;42.050;-8.660;2022-11-10T08:28:02;0.40;;;0.40;;
71003;SDS011;59025;42.050;-8.660;2022-11-10T08:30:32;0.40;;;0.40;;
71003;SDS011;59025;42.050;-8.660;2022-11-10T08:33:03;3.28;;;3.10;;
71003;SDS011;59025;42.050;-8.660;2022-11-10T08:35:33;0.73;;;0.73;;
71003;SDS011;59025;42.050;-8.660;2022-11-10T08:38:07;0.30;;;0.30;;
71003;SDS011;59025;42.050;-8.660;2022-11-10T08:40:36;0.50;;;0.50;;
71003;SDS011;59025;42.050;-8.660;2022-11-10T08:43:04;2.80;;;2.67;;
71003;SDS011;59025;42.050;-8.660;2022-11-10T08:45:33;0.77;;;0.77;;
71003;SDS011;59025;42.050;-8.660;2022-11-10T08:48:01;1.60;;;1.50;;
71003;SDS011;59025;42.050;-8.660;2022-11-10T08:50:31;0.60;;;0.60;;
71003;SDS011;59025;42.050;-8.660;2022-11-10T08:53:02;3.42;;;3.13;;
71003;SDS011;59025;42.050;-8.660;2022-11-10T08:55:32;2.42;;;2.33;;
71003;SDS011;59025;42.050;-8.660;2022-11-10T08:58:00;0.50;;;0.50;;
71003;SDS011;59025;42.050;-8.660;2022-11-10T09:00:28;2.20;;;2.10;;
71003;SDS011;59025;42.050;-8.660;2022-11-10T09:03:02;0.77;;;0.77;;
71003;SDS011;59025;42.050;-8.660;2022-11-10T09:05:32;1.63;;;1.52;;
71003;SDS011;59025;42.050;-8.660;2022-11-10T09:08:00;0.60;;;0.60;;
71003;SDS011;59025;42.050;-8.660;2022-11-10T09:10:28;0.40;;;0.40;;
71003;SDS011;59025;42.050;-8.660;2022-11-10T09:12:57;0.60;;;0.60;;
71003;SDS011;59025;42.050;-8.660;2022-11-10T09:15:25;1.80;;;1.70;;
71003;SDS011;59025;42.050;-8.660;2022-11-10T09:17:53;0.50;;;0.50;;
71003;SDS011;59025;42.050;-8.660;2022-11-10T09:20:25;0.50;;;0.50;;
71003;SDS011;59025;42.050;-8.660;2022-11-10T09:22:53;0.32;;;0.32;;
71003;SDS011;59025;42.050;-8.660;2022-11-10T09:25:20;0.40;;;0.40;;
71003;SDS011;59025;42.050;-8.660;2022-11-10T09:27:48;0.50;;;0.50;;
71003;SDS011;59025;42.050;-8.660;2022-11-10T09:30:16;0.50;;;0.50;;
71003;SDS011;59025;42.050;-8.660;2022-11-10T09:32:44;0.40;;;0.40;;
71003;SDS011;59025;42.050;-8.660;2022-11-10T09:35:11;0.50;;;0.50;;
71003;SDS011;59025;42.050;-8.660;2022-11-10T09:37:40;0.33;;;0.33;;
71003;SDS011;59025;42.050;-8.660;2022-11-10T09:40:08;0.43;;;0.43;;
71003;SDS011;59025;42.050;-8.660;2022-11-10T09:42:42;0.50;;;0.50;;
71003;SDS011;59025;42.050;-8.660;2022-11-10T09:45:16;0.70;;;0.70;;
71003;SDS011;59025;42.050;-8.660;2022-11-10T09:47:50;1.25;;;1.15;;
71003;SDS011;59025;42.050;-8.660;2022-11-10T09:50:26;0.37;;;0.37;;
71003;SDS011;59025;42.050;-8.660;2022-11-10T09:53:00;0.52;;;0.52;;
71003;SDS011;59025;42.050;-8.660;2022-11-10T09:55:33;0.50;;;0.50;;
71003;SDS011;59025;42.050;-8.660;2022-11-10T09:58:08;7.97;;;1.67;;
71003;SDS011;59025;42.050;-8.660;2022-11-10T10:00:38;0.70;;;0.70;;
71003;SDS011;59025;42.050;-8.660;2022-11-10T10:03:08;0.60;;;0.60;;
71003;SDS011;59025;42.050;-8.660;2022-11-10T10:05:51;0.70;;;0.70;;
71003;SDS011;59025;42.050;-8.660;2022-11-10T10:08:32;3.13;;;2.45;;
71003;SDS011;59025;42.050;-8.660;2022-11-10T10:11:13;16.13;;;7.97;;
71003;SDS011;59025;42.050;-8.660;2022-11-10T10:13:59;14.65;;;6.70;;
71003;SDS011;59025;42.050;-8.660;2022-11-10T10:16:37;8.60;;;4.50;;
71003;SDS011;59025;42.050;-8.660;2022-11-10T10:19:13;10.60;;;4.40;;
71003;SDS011;59025;42.050;-8.660;2022-11-10T10:21:48;7.78;;;3.65;;
71003;SDS011;59025;42.050;-8.660;2022-11-10T10:24:31;11.43;;;5.00;;
71003;SDS011;59025;42.050;-8.660;2022-11-10T10:27:01;11.95;;;5.53;;
71003;SDS011;59025;42.050;-8.660;2022-11-10T10:29:36;9.30;;;4.30;;
71003;SDS011;59025;42.050;-8.660;2022-11-10T10:32:12;7.95;;;3.38;;
71003;SDS011;59025;42.050;-8.660;2022-11-10T10:34:51;8.55;;;3.67;;
71003;SDS011;59025;42.050;-8.660;2022-11-10T10:37:23;7.72;;;3.17;;
71003;SDS011;59025;42.050;-8.660;2022-11-10T10:39:58;9.98;;;4.03;;
71003;SDS011;59025;42.050;-8.660;2022-11-10T10:42:27;6.87;;;3.03;;
71003;SDS011;59025;42.050;-8.660;2022-11-10T10:45:10;8.07;;;4.05;;
71003;SDS011;59025;42.050;-8.660;2022-11-10T10:47:39;11.65;;;6.97;;
71003;SDS011;59025;42.050;-8.660;2022-11-10T10:50:14;8.70;;;4.55;;
71003;SDS011;59025;42.050;-8.660;2022-11-10T10:53:02;8.38;;;3.50;;
71003;SDS011;59025;42.050;-8.660;2022-11-10T10:55:34;8.10;;;4.63;;
71003;SDS011;59025;42.050;-8.660;2022-11-10T10:58:04;8.68;;;3.10;;
71003;SDS011;59025;42.050;-8.660;2022-11-10T11:00:44;7.72;;;3.92;;
71003;SDS011;59025;42.050;-8.660;2022-11-10T11:03:13;9.20;;;4.53;;
71003;SDS011;59025;42.050;-8.660;2022-11-10T11:05:59;6.82;;;3.38;;
71003;SDS011;59025;42.050;-8.660;2022-11-10T11:08:28;8.00;;;2.97;;
71003;SDS011;59025;42.050;-8.660;2022-11-10T11:10:58;6.00;;;3.00;;
71003;SDS011;59025;42.050;-8.660;2022-11-10T11:13:33;5.38;;;2.80;;
71003;SDS011;59025;42.050;-8.660;2022-11-10T11:16:01;8.80;;;3.83;;
71003;SDS011;59025;42.050;-8.660;2022-11-10T11:18:31;7.45;;;2.70;;
71003;SDS011;59025;42.050;-8.660;2022-11-10T11:21:00;4.80;;;2.20;;
71003;SDS011;59025;42.050;-8.660;2022-11-10T11:23:38;5.38;;;2.80;;
71003;SDS011;59025;42.050;-8.660;2022-11-10T11:26:28;8.88;;;2.55;;
71003;SDS011;59025;42.050;-8.660;2022-11-10T11:29:09;4.80;;;2.17;;
71003;SDS011;59025;42.050;-8.660;2022-11-10T11:31:47;7.65;;;2.95;;
71003;SDS011;59025;42.050;-8.660;2022-11-10T11:34:25;6.83;;;2.40;;
71003;SDS011;59025;42.050;-8.660;2022-11-10T11:37:00;8.35;;;2.20;;
71003;SDS011;59025;42.050;-8.660;2022-11-10T11:39:36;7.50;;;2.38;;
71003;SDS011;59025;42.050;-8.660;2022-11-10T11:42:18;6.15;;;2.17;;
71003;SDS011;59025;42.050;-8.660;2022-11-10T11:45:02;4.85;;;2.05;;
71003;SDS011;59025;42.050;-8.660;2022-11-10T11:47:45;6.50;;;2.40;;
71003;SDS011;59025;42.050;-8.660;2022-11-10T11:50:29;5.50;;;2.33;;
71003;SDS011;59025;42.050;-8.660;2022-11-10T11:53:04;9.20;;;3.35;;
71003;SDS011;59025;42.050;-8.660;2022-11-10T11:55:45;7.60;;;2.70;;
71003;SDS011;59025;42.050;-8.660;2022-11-10T11:58:28;5.68;;;2.25;;
71003;SDS011;59025;42.050;-8.660;2022-11-10T12:01:09;7.30;;;2.60;;
71003;SDS011;59025;42.050;-8.660;2022-11-10T12:06:47;10.60;;;2.88;;
71003;SDS011;59025;42.050;-8.660;2022-11-10T12:09:30;7.38;;;2.50;;
71003;SDS011;59025;42.050;-8.660;2022-11-10T12:12:15;7.05;;;3.42;;
71003;SDS011;59025;42.050;-8.660;2022-11-10T12:14:57;7.07;;;2.60;;
71003;SDS011;59025;42.050;-8.660;2022-11-10T12:17:37;6.07;;;2.47;;
71003;SDS011;59025;42.050;-8.660;2022-11-10T12:20:15;6.60;;;2.42;;
71003;SDS011;59025;42.050;-8.660;2022-11-10T12:22:54;9.80;;;2.67;;
71003;SDS011;59025;42.050;-8.660;2022-11-10T12:25:30;7.25;;;3.08;;
71003;SDS011;59025;42.050;-8.660;2022-11-10T12:28:07;8.27;;;2.70;;
71003;SDS011;59025;42.050;-8.660;2022-11-10T12:30:42;8.25;;;2.22;;
71003;SDS011;59025;42.050;-8.660;2022-11-10T12:33:13;6.63;;;2.53;;
71003;SDS011;59025;42.050;-8.660;2022-11-10T12:35:46;6.72;;;2.08;;
71003;SDS011;59025;42.050;-8.660;2022-11-10T12:38:18;8.18;;;2.40;;
71003;SDS011;59025;42.050;-8.660;2022-11-10T12:40:50;5.23;;;1.80;;
71003;SDS011;59025;42.050;-8.660;2022-11-10T12:43:24;5.80;;;1.90;;
71003;SDS011;59025;42.050;-8.660;2022-11-10T12:46:00;5.82;;;1.90;;
71003;SDS011;59025;42.050;-8.660;2022-11-10T12:48:33;4.18;;;1.77;;
71003;SDS011;59025;42.050;-8.660;2022-11-10T12:51:11;5.68;;;2.00;;
71003;SDS011;59025;42.050;-8.660;2022-11-10T12:53:46;4.60;;;2.20;;
71003;SDS011;59025;42.050;-8.660;2022-11-10T12:56:16;6.60;;;2.17;;
71003;SDS011;59025;42.050;-8.660;2022-11-10T12:58:48;6.88;;;2.15;;
71003;SDS011;59025;42.050;-8.660;2022-11-10T13:01:42;5.40;;;1.70;;
71003;SDS011;59025;42.050;-8.660;2022-11-10T13:04:12;6.55;;;1.90;;
71003;SDS011;59025;42.050;-8.660;2022-11-10T13:06:44;4.20;;;1.63;;
71003;SDS011;59025;42.050;-8.660;2022-11-10T13:09:23;5.65;;;1.70;;
71003;SDS011;59025;42.050;-8.660;2022-11-10T13:12:13;7.00;;;1.90;;
71003;SDS011;59025;42.050;-8.660;2022-11-10T13:14:44;6.32;;;2.00;;
71003;SDS011;59025;42.050;-8.660;2022-11-10T13:23:25;5.57;;;2.03;;
71003;SDS011;59025;42.050;-8.660;2022-11-10T13:25:54;4.93;;;1.98;;
71003;SDS011;59025;42.050;-8.660;2022-11-10T13:34:30;6.13;;;2.13;;
71003;SDS011;59025;42.050;-8.660;2022-11-10T13:37:00;6.80;;;2.05;;
71003;SDS011;59025;42.050;-8.660;2022-11-10T13:39:29;5.93;;;1.92;;
71003;SDS011;59025;42.050;-8.660;2022-11-10T13:42:01;11.18;;;2.42;;
71003;SDS011;59025;42.050;-8.660;2022-11-10T13:44:43;4.85;;;2.05;;
71003;SDS011;59025;42.050;-8.660;2022-11-10T13:47:17;7.83;;;2.60;;
71003;SDS011;59025;42.050;-8.660;2022-11-10T13:50:11;5.90;;;2.42;;
71003;SDS011;59025;42.050;-8.660;2022-11-10T13:52:56;6.57;;;2.88;;
71003;SDS011;59025;42.050;-8.660;2022-11-10T13:55:45;5.32;;;2.20;;
71003;SDS011;59025;42.050;-8.660;2022-11-10T13:58:22;7.10;;;2.40;;
71003;SDS011;59025;42.050;-8.660;2022-11-10T14:06:37;8.50;;;2.10;;
71003;SDS011;59025;42.050;-8.660;2022-11-10T14:09:14;6.68;;;2.35;;
71003;SDS011;59025;42.050;-8.660;2022-11-10T14:11:55;5.50;;;2.50;;
71003;SDS011;59025;42.050;-8.660;2022-11-10T14:14:27;7.47;;;2.10;;
71003;SDS011;59025;42.050;-8.660;2022-11-10T14:17:01;7.40;;;2.33;;
71003;SDS011;59025;42.050;-8.660;2022-11-10T14:19:36;7.00;;;2.25;;
71003;SDS011;59025;42.050;-8.660;2022-11-10T14:22:11;5.25;;;1.92;;
71003;SDS011;59025;42.050;-8.660;2022-11-10T14:24:51;5.20;;;1.42;;
71003;SDS011;59025;42.050;-8.660;2022-11-10T14:27:23;4.60;;;2.20;;
71003;SDS011;59025;42.050;-8.660;2022-11-10T14:30:03;5.55;;;4.32;;
71003;SDS011;59025;42.050;-8.660;2022-11-10T14:32:32;5.00;;;1.73;;
71003;SDS011;59025;42.050;-8.660;2022-11-10T14:35:01;4.68;;;1.58;;
71003;SDS011;59025;42.050;-8.660;2022-11-10T14:37:29;3.85;;;1.27;;
71003;SDS011;59025;42.050;-8.660;2022-11-10T14:39:58;3.33;;;1.43;;
71003;SDS011;59025;42.050;-8.660;2022-11-10T14:42:29;6.05;;;1.60;;
71003;SDS011;59025;42.050;-8.660;2022-11-10T14:45:05;5.22;;;1.80;;
71003;SDS011;59025;42.050;-8.660;2022-11-10T14:47:37;5.32;;;2.08;;
71003;SDS011;59025;42.050;-8.660;2022-11-10T14:50:05;4.25;;;1.80;;
71003;SDS011;59025;42.050;-8.660;2022-11-10T14:52:40;8.20;;;1.63;;
71003;SDS011;59025;42.050;-8.660;2022-11-10T14:55:14;5.25;;;1.67;;
71003;SDS011;59025;42.050;-8.660;2022-11-10T14:57:50;5.88;;;1.95;;
71003;SDS011;59025;42.050;-8.660;2022-11-10T15:00:24;6.43;;;2.20;;
71003;SDS011;59025;42.050;-8.660;2022-11-10T15:02:53;5.18;;;1.92;;
71003;SDS011;59025;42.050;-8.660;2022-11-10T15:05:22;4.10;;;1.70;;
71003;SDS011;59025;42.050;-8.660;2022-11-10T15:07:51;6.70;;;2.40;;
71003;SDS011;59025;42.050;-8.660;2022-11-10T15:10:23;6.60;;;2.00;;
71003;SDS011;59025;42.050;-8.660;2022-11-10T15:12:58;9.45;;;2.05;;
71003;SDS011;59025;42.050;-8.660;2022-11-10T15:15:28;7.65;;;2.30;;
71003;SDS011;59025;42.050;-8.660;2022-11-10T15:17:55;5.10;;;1.63;;
71003;SDS011;59025;42.050;-8.660;2022-11-10T15:20:29;3.88;;;1.70;;
71003;SDS011;59025;42.050;-8.660;2022-11-10T15:23:02;6.15;;;2.00;;